Time;durP1;ratioP1;P1;durP2;ratioP2;P2;SDS_P1;SDS_P2;PMS_P1;PMS_P2;Temp;Humidity;BMP_temperature;BMP_pressure;BME280_temperature;BME280_humidity;BME280_pressure;Samples;Min_cycle;Max_cycle;Signal;HPM_P1;HPM_P2
2022/05/09 00:02:02;;;;;;;6.70;3.63;;;;;;;14.01;60.38;100246.91;5109561;28;20027;-49
2022/05/09 00:04:27;;;;;;;6.70;3.80;;;;;;;14.02;60.22;100251.22;5112118;28;20024;-51
2022/05/09 00:06:53;;;;;;;8.65;3.80;;;;;;;13.76;61.57;100246.81;5113298;28;20050;-49
2022/05/09 00:09:18;;;;;;;6.45;3.72;;;;;;;13.73;61.36;100231.19;5113346;28;20068;-48
2022/05/09 00:11:44;;;;;;;12.50;4.70;;;;;;;13.88;61.43;100250.47;5113776;28;20142;-48
2022/05/09 00:14:10;;;;;;;6.88;4.40;;;;;;;13.76;61.15;100239.59;5113286;28;20493;-49
2022/05/09 00:16:36;;;;;;;7.68;4.18;;;;;;;13.81;61.72;100255.03;5113349;28;20115;-48
2022/05/09 00:19:07;;;;;;;6.72;3.92;;;;;;;13.71;61.58;100243.94;5113104;28;20110;-48
2022/05/09 00:21:40;;;;;;;7.50;4.30;;;;;;;13.88;61.33;100256.66;5113247;28;20078;-49
2022/05/09 00:24:08;;;;;;;7.35;3.80;;;;;;;13.97;61.28;100248.38;5113260;28;20092;-47
2022/05/09 00:26:34;;;;;;;6.55;4.07;;;;;;;13.75;62.03;100245.19;5113224;28;20020;-48
2022/05/09 00:29:02;;;;;;;5.80;3.90;;;;;;;13.88;61.48;100248.63;5113271;28;20110;-48
2022/05/09 00:31:29;;;;;;;7.45;3.70;;;;;;;14.00;61.21;100253.31;5113092;28;20475;-48
2022/05/09 00:33:55;;;;;;;8.30;4.00;;;;;;;13.86;61.49;100256.03;5113029;28;20092;-48
2022/05/09 00:36:21;;;;;;;9.15;3.88;;;;;;;13.60;62.26;100254.28;5112806;28;20487;-49
2022/05/09 00:38:47;;;;;;;7.85;4.03;;;;;;;13.82;62.33;100245.97;5112950;28;20053;-48
2022/05/09 00:41:34;;;;;;;8.90;4.13;;;;;;;13.74;61.79;100255.03;5112812;28;20102;-47
2022/05/09 00:44:02;;;;;;;6.25;4.10;;;;;;;13.54;62.46;100259.66;5112772;28;20483;-49
2022/05/09 00:46:28;;;;;;;10.25;4.35;;;;;;;13.55;62.52;100261.28;5112677;28;20012;-47
2022/05/09 00:49:16;;;;;;;8.93;4.45;;;;;;;13.42;63.00;100262.97;5113370;28;20098;-47
2022/05/09 00:51:45;;;;;;;8.77;4.07;;;;;;;13.42;62.99;100254.97;5112792;28;20054;-48
2022/05/09 00:54:10;;;;;;;8.25;4.00;;;;;;;13.44;62.89;100258.25;5113128;28;20509;-46
2022/05/09 00:56:43;;;;;;;6.75;3.80;;;;;;;13.43;63.70;100256.59;5113492;28;20020;-47
2022/05/09 00:59:14;;;;;;;6.80;3.88;;;;;;;13.71;62.55;100254.63;5113345;28;20436;-47
2022/05/09 01:01:40;;;;;;;6.53;3.80;;;;;;;13.83;61.55;100247.63;5113037;28;20023;-47
2022/05/09 01:04:11;;;;;;;6.90;3.97;;;;;;;13.76;61.92;100255.66;5112966;28;20019;-47
2022/05/09 01:06:37;;;;;;;6.47;4.07;;;;;;;13.66;62.14;100257.97;5112930;28;20056;-48
2022/05/09 01:09:06;;;;;;;7.13;3.95;;;;;;;13.81;61.94;100247.81;5113044;28;20024;-48
2022/05/09 01:11:34;;;;;;;9.50;4.20;;;;;;;13.68;62.40;100246.00;5113091;28;20019;-48
2022/05/09 01:14:14;;;;;;;9.43;4.53;;;;;;;13.81;62.31;100245.16;5112495;28;20035;-48
2022/05/09 01:16:41;;;;;;;8.32;4.03;;;;;;;13.72;62.10;100253.63;5113044;28;20024;-47
2022/05/09 01:19:31;;;;;;;7.15;4.35;;;;;;;13.84;61.77;100251.91;5113024;28;20114;-48
2022/05/09 01:21:58;;;;;;;7.60;4.22;;;;;;;13.64;62.56;100249.34;5098046;28;20062;-47
2022/05/09 01:24:26;;;;;;;8.43;4.53;;;;;;;13.41;63.24;100249.81;5112450;28;20077;-47
2022/05/09 01:26:52;;;;;;;7.35;4.60;;;;;;;13.07;64.28;100254.38;5112715;28;20368;-49
2022/05/09 01:30:02;;;;;;;11.77;4.50;;;;;;;13.07;64.85;100238.34;5112605;28;20106;-50
2022/05/09 01:32:37;;;;;;;9.30;4.90;;;;;;;13.15;64.66;100243.44;5064969;28;20036;-48
2022/05/09 01:35:20;;;;;;;10.10;4.70;;;;;;;13.32;64.29;100248.41;5112835;28;20023;-50
2022/05/09 01:37:50;;;;;;;7.10;4.22;;;;;;;13.38;63.40;100244.88;5112425;28;20024;-48
2022/05/09 01:40:16;;;;;;;10.38;5.13;;;;;;;13.51;62.99;100249.38;5112211;28;20133;-49
2022/05/09 01:42:42;;;;;;;8.82;4.60;;;;;;;13.25;64.28;100256.38;5112011;28;20058;-48
2022/05/09 01:45:09;;;;;;;8.73;4.72;;;;;;;13.34;63.95;100249.00;5112179;28;20107;-49
2022/05/09 01:50:19;;;;;;;10.68;4.68;;;;;;;13.37;63.88;100249.41;5112227;28;20164;-50
2022/05/09 01:52:44;;;;;;;8.50;5.03;;;;;;;13.11;64.27;100255.59;5111858;28;20467;-47
2022/05/09 01:55:10;;;;;;;6.70;4.63;;;;;;;13.02;64.72;100248.81;5111854;28;20020;-49
2022/05/09 01:57:36;;;;;;;10.77;5.05;;;;;;;13.18;63.92;100239.56;5111791;28;20029;-48
2022/05/09 02:00:05;;;;;;;11.15;5.35;;;;;;;13.25;63.63;100253.69;5112004;28;20391;-48
2022/05/09 02:02:31;;;;;;;8.43;5.05;;;;;;;13.37;63.09;100248.59;5093436;28;20347;-50
2022/05/09 02:04:57;;;;;;;7.63;5.35;;;;;;;13.38;63.40;100244.88;5111960;28;20036;-48
2022/05/09 02:07:23;;;;;;;7.10;5.03;;;;;;;13.35;63.72;100251.47;5111772;28;20100;-52
2022/05/09 02:09:50;;;;;;;8.82;5.20;;;;;;;13.34;63.58;100249.81;5112042;28;20106;-50
2022/05/09 02:12:17;;;;;;;8.90;5.13;;;;;;;13.37;63.31;100254.75;5111710;28;20027;-49
2022/05/09 02:14:43;;;;;;;9.82;5.68;;;;;;;13.56;63.07;100254.91;5111973;28;20037;-50
2022/05/09 02:17:10;;;;;;;11.68;6.10;;;;;;;13.38;63.85;100259.06;5111562;28;20532;-48
2022/05/09 02:19:36;;;;;;;10.35;5.60;;;;;;;13.30;63.54;100259.28;5111350;28;20023;-48
2022/05/09 02:22:02;;;;;;;11.00;5.57;;;;;;;13.31;63.81;100255.59;5111286;28;20032;-47
2022/05/09 02:24:28;;;;;;;13.23;6.97;;;;;;;13.44;63.57;100266.25;5111089;28;20035;-47
2022/05/09 02:26:55;;;;;;;10.73;5.97;;;;;;;13.22;64.22;100260.31;5110657;28;20026;-47
2022/05/09 02:29:20;;;;;;;14.77;6.03;;;;;;;13.13;64.42;100266.06;5111020;28;20115;-47
2022/05/09 02:31:46;;;;;;;8.60;5.60;;;;;;;13.27;63.65;100247.13;5111366;28;20120;-48
2022/05/09 02:34:12;;;;;;;11.30;5.82;;;;;;;13.41;63.28;100257.84;5111277;28;20015;-47
2022/05/09 02:36:38;;;;;;;11.07;6.15;;;;;;;13.41;63.34;100261.31;5111552;28;20027;-46
2022/05/09 02:39:04;;;;;;;11.95;6.30;;;;;;;13.46;62.71;100258.00;5111700;28;20019;-47
2022/05/09 02:41:30;;;;;;;9.95;5.47;;;;;;;13.57;62.74;100262.72;5111239;28;20027;-47
2022/05/09 02:43:55;;;;;;;9.30;5.43;;;;;;;13.58;62.45;100260.88;5111265;28;20054;-47
2022/05/09 02:46:21;;;;;;;9.18;5.70;;;;;;;13.65;62.34;100262.50;5111111;28;20375;-48
2022/05/09 02:48:46;;;;;;;11.02;5.80;;;;;;;13.60;62.24;100262.31;5110502;28;20031;-47
2022/05/09 02:51:13;;;;;;;8.38;5.60;;;;;;;13.59;62.03;100257.16;5111063;28;20024;-48
2022/05/09 02:53:39;;;;;;;12.52;6.00;;;;;;;13.71;61.89;100268.84;5110792;28;20551;-47
2022/05/09 02:56:06;;;;;;;10.35;5.93;;;;;;;13.72;61.68;100256.28;5111085;28;20036;-47
2022/05/09 02:58:32;;;;;;;11.85;6.03;;;;;;;13.82;61.78;100270.88;5111043;28;20015;-47
2022/05/09 03:00:57;;;;;;;15.40;6.22;;;;;;;13.82;61.49;100278.06;5111067;28;20031;-48
2022/05/09 03:06:07;;;;;;;12.63;6.47;;;;;;;13.67;61.79;100276.47;5110967;28;20485;-47
2022/05/09 03:08:33;;;;;;;12.38;6.35;;;;;;;13.65;61.89;100275.03;5111473;28;20023;-48
2022/05/09 03:11:00;;;;;;;12.13;5.93;;;;;;;13.40;62.53;100272.22;5110881;28;20047;-48
2022/05/09 03:13:25;;;;;;;13.05;6.32;;;;;;;13.57;62.51;100278.75;5110720;28;20039;-49
2022/05/09 03:15:51;;;;;;;15.10;6.70;;;;;;;13.55;62.65;100283.50;5111060;28;20047;-49
2022/05/09 03:18:21;;;;;;;9.15;6.07;;;;;;;13.30;63.70;100292.19;5110797;28;20024;-48
2022/05/09 03:20:46;;;;;;;16.15;6.50;;;;;;;13.56;62.93;100282.47;5111331;28;20073;-47
2022/05/09 03:23:12;;;;;;;24.30;14.98;;;;;;;13.55;62.85;100286.16;5110783;28;20050;-48
2022/05/09 03:25:39;;;;;;;40.88;23.13;;;;;;;13.37;62.70;100288.69;5110783;28;20051;-48
2022/05/09 03:28:11;;;;;;;54.70;32.35;;;;;;;13.48;62.84;100288.88;5110923;28;20508;-47
2022/05/09 03:30:38;;;;;;;56.20;28.17;;;;;;;13.56;62.87;100295.03;5110765;28;20219;-49
2022/05/09 03:33:04;;;;;;;30.33;15.40;;;;;;;13.68;62.27;100290.66;5110780;28;20023;-48
2022/05/09 03:35:30;;;;;;;11.20;6.63;;;;;;;13.71;62.08;100300.09;5110885;28;20020;-48
2022/05/09 03:37:56;;;;;;;13.73;6.63;;;;;;;13.68;61.98;100294.16;5112495;28;20018;-48
2022/05/09 03:40:22;;;;;;;13.23;6.30;;;;;;;13.86;61.62;100298.03;5114942;28;20102;-49
2022/05/09 03:42:48;;;;;;;13.75;6.47;;;;;;;13.91;61.18;100298.19;5114501;28;20099;-48
2022/05/09 03:45:14;;;;;;;13.27;6.35;;;;;;;13.88;60.84;100304.81;5114847;28;20405;-48
2022/05/09 03:47:40;;;;;;;10.75;6.32;;;;;;;13.98;60.82;100298.19;5114509;28;20450;-47
2022/05/09 03:50:07;;;;;;;10.27;6.45;;;;;;;14.06;60.31;100290.72;5114503;28;20023;-48
2022/05/09 03:52:33;;;;;;;18.17;6.68;;;;;;;14.17;60.23;100305.28;5114242;28;20019;-49
2022/05/09 03:54:58;;;;;;;12.35;6.22;;;;;;;14.43;59.77;100301.66;5114108;28;20084;-49
2022/05/09 03:57:25;;;;;;;14.23;6.10;;;;;;;14.88;61.01;100305.31;5114117;28;20020;-49
2022/05/09 03:59:50;;;;;;;14.20;6.43;;;;;;;15.34;58.23;100312.13;5114799;28;20382;-48
2022/05/09 04:02:16;;;;;;;16.20;6.80;;;;;;;15.62;57.24;100312.44;5113919;28;20027;-49
2022/05/09 04:04:42;;;;;;;15.18;6.78;;;;;;;15.81;56.53;100313.31;5113673;28;20042;-49
2022/05/09 04:07:07;;;;;;;12.23;5.57;;;;;;;16.12;59.94;100316.03;5113363;28;20044;-48
2022/05/09 04:09:33;;;;;;;10.65;5.75;;;;;;;16.57;55.08;100305.72;5113620;28;20035;-49
2022/05/09 04:11:58;;;;;;;18.35;6.15;;;;;;;16.75;53.95;100312.91;5113618;28;20117;-48
2022/05/09 04:17:10;;;;;;;11.32;5.90;;;;;;;17.20;52.55;100315.06;5113393;28;20080;-49
2022/05/09 04:19:36;;;;;;;15.43;6.07;;;;;;;17.38;51.59;100310.63;5100041;28;20020;-49
2022/05/09 04:22:02;;;;;;;16.45;6.63;;;;;;;17.82;50.59;100311.06;5105372;28;20431;-51
2022/05/09 04:24:30;;;;;;;18.00;8.52;;;;;;;18.14;49.20;100313.31;5112595;28;20055;-49
2022/05/09 04:26:59;;;;;;;15.35;6.95;;;;;;;18.22;48.80;100318.34;5112661;28;20007;-49
2022/05/09 04:29:25;;;;;;;11.40;6.63;;;;;;;18.27;47.74;100326.50;5112960;28;20027;-50
2022/05/09 04:31:51;;;;;;;11.35;6.40;;;;;;;17.96;48.69;100319.72;5112258;28;20023;-50
2022/05/09 04:34:16;;;;;;;14.95;8.55;;;;;;;18.13;48.01;100323.28;5112045;28;20144;-48
2022/05/09 04:36:42;;;;;;;21.17;7.97;;;;;;;18.51;47.76;100321.84;5110455;28;20027;-48
2022/05/09 04:39:08;;;;;;;14.77;6.38;;;;;;;18.97;46.88;100326.44;5108841;28;20631;-49
2022/05/09 04:41:35;;;;;;;16.88;6.82;;;;;;;19.29;45.89;100327.47;5108910;28;20024;-47
2022/05/09 04:44:03;;;;;;;24.83;7.05;;;;;;;19.49;45.74;100318.84;5108939;28;20072;-52
2022/05/09 04:46:28;;;;;;;13.13;6.40;;;;;;;19.66;44.42;100301.81;5109195;28;20023;-52
2022/05/09 04:48:53;;;;;;;18.88;6.53;;;;;;;20.16;43.76;100327.00;5109902;28;20038;-52
2022/05/09 04:51:19;;;;;;;15.52;6.35;;;;;;;20.58;42.89;100326.38;5111545;28;20023;-51
2022/05/09 04:53:47;;;;;;;15.10;6.47;;;;;;;20.49;42.76;100326.03;5112225;28;20027;-50
2022/05/09 04:56:12;;;;;;;15.05;6.35;;;;;;;20.63;42.24;100329.16;5113302;28;20102;-50
2022/05/09 04:58:38;;;;;;;15.75;7.63;;;;;;;20.87;41.59;100322.34;5112544;28;20187;-49
2022/05/09 05:01:03;;;;;;;17.02;7.32;;;;;;;21.08;40.64;100325.22;5112532;28;20027;-51
2022/05/09 05:03:28;;;;;;;17.83;10.27;;;;;;;21.01;40.84;100328.16;5112364;28;20035;-47
2022/05/09 05:05:54;;;;;;;27.42;14.15;;;;;;;21.49;40.92;100322.81;5112232;28;20055;-37
2022/05/09 05:08:21;;;;;;;25.45;16.58;;;;;;;21.80;40.19;100326.50;5112787;28;20043;-38
2022/05/09 05:10:52;;;;;;;16.15;5.97;;;;;;;21.80;39.83;100323.81;5112661;28;20462;-37
2022/05/09 05:13:18;;;;;;;13.55;5.20;;;;;;;22.01;39.12;100322.00;5112059;28;20053;-36
2022/05/09 05:15:44;;;;;;;59.33;34.40;;;;;;;21.60;39.99;100321.78;5111971;28;20016;-37
2022/05/09 05:18:09;;;;;;;17.30;10.93;;;;;;;22.18;39.03;100323.66;5111928;28;20035;-37
2022/05/09 05:20:35;;;;;;;12.23;5.65;;;;;;;22.57;38.10;100312.41;5111791;28;20126;-37
2022/05/09 05:23:01;;;;;;;15.73;5.40;;;;;;;23.28;37.13;100325.16;5111898;28;20120;-37
2022/05/09 05:25:30;;;;;;;12.32;6.03;;;;;;;23.52;36.26;100319.97;5111595;28;20061;-38
2022/05/09 05:27:57;;;;;;;11.48;5.63;;;;;;;23.72;35.95;100323.69;5111991;28;20525;-37
2022/05/09 05:30:23;;;;;;;16.50;5.50;;;;;;;23.98;35.46;100324.44;5111932;28;20083;-37
2022/05/09 05:32:49;;;;;;;12.27;4.95;;;;;;;24.11;35.95;100333.91;5112052;28;20523;-38
2022/05/09 05:35:17;;;;;;;13.82;5.50;;;;;;;24.17;35.38;100330.06;5112107;28;20062;-37
2022/05/09 05:37:43;;;;;;;12.38;5.70;;;;;;;24.03;35.78;100329.88;5111799;28;20031;-36
2022/05/09 05:40:10;;;;;;;12.50;5.47;;;;;;;24.59;34.75;100334.19;5111899;28;20027;-37
2022/05/09 05:42:39;;;;;;;17.17;7.75;;;;;;;25.04;34.01;100324.03;5111632;28;20065;-37
2022/05/09 05:45:04;;;;;;;;;;;;;;;25.45;33.31;100322.84;5112118;28;20431;-37
2022/05/09 05:47:30;;;;;;;14.93;6.93;;;;;;;25.52;32.70;100318.69;5111480;28;20023;-37
2022/05/09 05:49:57;;;;;;;10.65;6.00;;;;;;;24.98;33.62;100330.66;5111626;28;20057;-37
2022/05/09 05:52:22;;;;;;;17.33;9.85;;;;;;;25.12;33.15;100320.69;5111260;28;20515;-37
2022/05/09 05:54:48;;;;;;;14.70;6.75;;;;;;;24.69;33.55;100330.59;5111309;28;20130;-38
2022/05/09 05:57:18;;;;;;;15.43;6.43;;;;;;;25.00;33.34;100330.34;5111534;28;20019;-38
2022/05/09 05:59:49;;;;;;;11.50;6.22;;;;;;;24.94;32.63;100329.56;5111917;28;20115;-37
2022/05/09 06:02:14;;;;;;;12.48;6.10;;;;;;;25.26;32.83;100325.50;5110697;28;20024;-37
2022/05/09 06:04:39;;;;;;;11.45;6.22;;;;;;;25.38;32.26;100336.84;5111826;28;20382;-37
2022/05/09 06:07:05;;;;;;;10.70;6.10;;;;;;;25.98;31.64;100328.25;5111538;28;20414;-38
2022/05/09 06:09:30;;;;;;;11.98;5.53;;;;;;;26.36;31.21;100338.41;5111469;28;20020;-36
2022/05/09 06:11:56;;;;;;;9.32;5.05;;;;;;;26.36;30.08;100330.22;5111598;28;20070;-39
2022/05/09 06:14:21;;;;;;;8.02;4.80;;;;;;;26.66;29.41;100337.19;5111198;28;20471;-37
2022/05/09 06:16:46;;;;;;;10.60;4.80;;;;;;;27.06;29.57;100327.50;5111307;28;20028;-37
2022/05/09 06:19:12;;;;;;;12.68;5.13;;;;;;;27.73;28.73;100330.94;5111423;28;20099;-38
2022/05/09 06:21:37;;;;;;;8.90;5.00;;;;;;;28.24;27.94;100336.16;5111512;28;20026;-36
2022/05/09 06:24:04;;;;;;;14.40;7.78;;;;;;;28.65;27.37;100338.00;5111020;28;20407;-37
2022/05/09 06:26:31;;;;;;;8.60;4.78;;;;;;;28.57;27.43;100326.97;5111065;28;20100;-38
2022/05/09 06:28:56;;;;;;;11.32;4.97;;;;;;;28.71;26.47;100329.66;5110803;28;20024;-37
2022/05/09 06:31:22;;;;;;;8.93;5.32;;;;;;;26.57;28.81;100328.00;5111174;28;20102;-37
2022/05/09 06:33:47;;;;;;;8.07;5.35;;;;;;;27.30;27.96;100319.19;5110952;28;20023;-37
2022/05/09 06:36:13;;;;;;;7.88;5.03;;;;;;;27.74;27.75;100327.06;5110641;28;20316;-38
2022/05/09 06:38:39;;;;;;;8.27;4.93;;;;;;;28.36;27.57;100323.88;5111253;28;20019;-38
2022/05/09 06:41:04;;;;;;;7.47;4.95;;;;;;;28.84;26.77;100331.50;5111353;28;20410;-38
2022/05/09 06:43:30;;;;;;;9.98;5.30;;;;;;;29.03;26.86;100339.53;5111002;28;20098;-37
2022/05/09 06:45:56;;;;;;;9.43;4.80;;;;;;;29.29;26.60;100320.53;5111103;28;20026;-38
2022/05/09 06:48:22;;;;;;;11.65;4.93;;;;;;;29.52;25.78;100318.53;5110491;28;20020;-37
2022/05/09 06:50:48;;;;;;;11.85;5.05;;;;;;;29.68;25.50;100324.38;5110487;28;20395;-37
2022/05/09 06:53:14;;;;;;;14.52;4.68;;;;;;;29.95;25.44;100319.78;5110656;28;20026;-37
2022/05/09 06:55:39;;;;;;;12.73;5.00;;;;;;;30.06;25.51;100321.09;5110954;28;20042;-38
2022/05/09 06:58:10;;;;;;;9.95;4.95;;;;;;;30.28;25.21;100313.88;5110582;28;20077;-38
2022/05/09 07:00:36;;;;;;;14.93;5.45;;;;;;;30.23;25.44;100330.50;5108702;28;20020;-37
2022/05/09 07:03:04;;;;;;;11.00;4.82;;;;;;;30.68;24.56;100319.22;5109222;28;20011;-38
2022/05/09 07:05:30;;;;;;;10.30;4.90;;;;;;;30.40;24.67;100325.03;5109867;28;20144;-38
2022/05/09 07:07:55;;;;;;;10.95;5.78;;;;;;;29.15;26.04;100319.81;5109993;28;20079;-38
2022/05/09 07:10:21;;;;;;;12.40;5.30;;;;;;;28.91;27.09;100314.66;5110575;28;20111;-38
2022/05/09 07:12:52;;;;;;;8.82;5.25;;;;;;;29.57;25.99;100312.09;5111548;28;20145;-38
2022/05/09 07:15:27;;;;;;;21.75;5.93;;;;;;;28.78;26.80;100314.41;5114929;28;20190;-37
2022/05/09 07:17:53;;;;;;;9.07;4.90;;;;;;;29.47;25.89;100315.91;5114685;28;20023;-38
2022/05/09 07:20:20;;;;;;;8.73;5.25;;;;;;;29.92;25.60;100302.06;5114337;28;20023;-38
2022/05/09 07:22:54;;;;;;;8.50;4.80;;;;;;;30.27;24.79;100307.56;5114280;28;20111;-38
2022/05/09 07:25:21;;;;;;;11.85;5.20;;;;;;;30.39;24.86;100304.22;5114686;28;20038;-38
2022/05/09 07:27:46;;;;;;;9.40;5.25;;;;;;;30.34;24.78;100301.63;5114420;28;20023;-38
2022/05/09 07:30:16;;;;;;;9.98;5.20;;;;;;;29.93;26.03;100311.91;5114220;28;20019;-39
2022/05/09 07:32:42;;;;;;;12.60;5.53;;;;;;;30.15;25.14;100304.66;5114355;28;20100;-37
2022/05/09 07:35:11;;;;;;;8.43;4.90;;;;;;;30.42;24.64;100308.25;5114264;28;20487;-37
2022/05/09 07:37:38;;;;;;;9.25;5.32;;;;;;;30.57;24.13;100302.28;5114127;28;20430;-37
2022/05/09 07:40:05;;;;;;;9.98;5.47;;;;;;;30.47;24.63;100305.34;5114341;28;20036;-37
2022/05/09 07:42:31;;;;;;;9.60;4.60;;;;;;;29.93;25.62;100294.63;5114311;28;20053;-37
2022/05/09 07:44:57;;;;;;;11.00;5.32;;;;;;;30.39;25.19;100296.00;5114086;28;20027;-37
2022/05/09 07:47:23;;;;;;;13.32;6.18;;;;;;;29.92;24.56;100299.31;5114042;28;20023;-37
2022/05/09 07:49:50;;;;;;;10.38;5.00;;;;;;;29.20;26.16;100295.00;5114015;28;20497;-37
2022/05/09 07:52:15;;;;;;;11.48;5.50;;;;;;;28.91;26.75;100293.53;5113894;28;20345;-36
2022/05/09 07:54:41;;;;;;;11.00;5.50;;;;;;;28.77;26.34;100299.09;5113947;28;20052;-36
2022/05/09 07:57:06;;;;;;;9.45;5.55;;;;;;;28.55;27.16;100301.84;5113745;28;20027;-38
2022/05/09 07:59:32;;;;;;;13.48;5.45;;;;;;;28.74;26.60;100296.97;5113837;28;20023;-37
2022/05/09 08:01:57;;;;;;;9.82;5.18;;;;;;;28.81;26.53;100296.56;5113309;28;20035;-37
2022/05/09 08:04:23;;;;;;;9.68;5.38;;;;;;;28.59;26.43;100297.38;5113388;28;20032;-38
2022/05/09 08:06:49;;;;;;;7.97;4.82;;;;;;;28.64;27.27;100292.56;5112786;28;20043;-38
2022/05/09 08:09:14;;;;;;;11.57;6.38;;;;;;;27.99;28.26;100291.03;5113382;28;20340;-38
2022/05/09 08:11:41;;;;;;;10.88;5.88;;;;;;;27.51;28.62;100302.38;5113520;28;20376;-37
2022/05/09 08:14:07;;;;;;;16.63;6.25;;;;;;;26.56;29.83;100296.34;5113372;28;20023;-38
2022/05/09 08:16:33;;;;;;;12.77;5.70;;;;;;;27.03;29.24;100295.31;5113714;28;20164;-37
2022/05/09 08:19:00;;;;;;;10.05;5.50;;;;;;;27.82;28.75;100293.56;5113356;28;20440;-37
2022/05/09 08:21:26;;;;;;;12.40;6.00;;;;;;;27.32;29.28;100293.47;5113792;28;20495;-38
2022/05/09 08:23:52;;;;;;;29.92;10.15;;;;;;;27.82;28.27;100302.56;5111878;28;20023;-37
2022/05/09 08:26:21;;;;;;;12.43;5.55;;;;;;;28.63;27.40;100290.94;5113208;28;20012;-37
2022/05/09 08:28:48;;;;;;;11.98;5.45;;;;;;;28.70;27.18;100293.25;5113354;28;20042;-38
2022/05/09 08:31:18;;;;;;;9.02;5.18;;;;;;;29.35;26.90;100302.81;5113131;28;20028;-38
2022/05/09 08:33:45;;;;;;;8.27;4.70;;;;;;;29.72;27.00;100295.22;5112730;28;20445;-37
2022/05/09 08:36:10;;;;;;;14.45;5.70;;;;;;;27.53;29.10;100302.06;5112735;28;20016;-37
2022/05/09 08:38:36;;;;;;;13.57;5.68;;;;;;;27.77;28.62;100291.75;5112974;28;20057;-37
2022/05/09 08:41:13;;;;;;;13.73;6.05;;;;;;;27.79;29.15;100289.50;5112846;28;20455;-38
2022/05/09 08:43:45;;;;;;;11.82;5.32;;;;;;;26.98;30.32;100292.69;5112741;28;20573;-37
2022/05/09 08:46:44;;;;;;;11.27;5.07;;;;;;;27.42;29.39;100282.34;5112735;28;20555;-38
2022/05/09 08:49:31;;;;;;;11.65;4.60;;;;;;;27.48;29.92;100292.88;5098661;28;20046;-37
2022/05/09 08:52:03;;;;;;;11.48;4.90;;;;;;;26.80;30.42;100293.53;5112968;28;20040;-37
2022/05/09 08:54:29;;;;;;;14.30;5.90;;;;;;;26.18;30.87;100289.00;5112537;28;20050;-38
2022/05/09 08:57:01;;;;;;;11.20;5.32;;;;;;;26.83;30.33;100292.97;5112646;28;20028;-37
2022/05/09 08:59:33;;;;;;;10.73;4.95;;;;;;;27.35;30.51;100287.41;5112438;28;20503;-37
2022/05/09 09:02:12;;;;;;;10.35;4.75;;;;;;;27.54;29.73;100285.38;5112537;28;20092;-36
2022/05/09 09:04:38;;;;;;;11.05;5.10;;;;;;;27.67;29.20;100289.22;5112990;28;20015;-37
2022/05/09 09:07:31;;;;;;;9.30;4.93;;;;;;;27.77;28.98;100293.66;5111992;28;20048;-37
2022/05/09 09:10:11;;;;;;;11.75;5.07;;;;;;;27.58;29.38;100288.31;5112202;28;20495;-37
2022/05/09 09:12:58;;;;;;;8.35;4.57;;;;;;;27.48;29.52;100289.34;5112378;28;20102;-37
2022/05/09 09:15:29;;;;;;;11.90;4.70;;;;;;;27.38;30.14;100286.78;5112319;28;20047;-38
2022/05/09 09:18:06;;;;;;;11.20;4.30;;;;;;;27.97;29.86;100282.34;5111964;28;20118;-37
2022/05/09 09:20:57;;;;;;;8.45;4.40;;;;;;;26.91;31.60;100276.69;5111668;28;20510;-37
2022/05/09 09:23:54;;;;;;;9.15;4.00;;;;;;;26.59;31.46;100272.03;5111907;28;20487;-36
2022/05/09 09:26:26;;;;;;;6.55;4.13;;;;;;;26.45;31.74;100269.22;5102462;28;20039;-36
2022/05/09 09:29:10;;;;;;;6.45;4.05;;;;;;;26.14;32.54;100277.88;5111769;28;20399;-38
2022/05/09 09:31:39;;;;;;;13.20;4.88;;;;;;;25.39;32.88;100280.44;5111832;28;20016;-38
2022/05/09 09:34:16;;;;;;;5.93;4.00;;;;;;;25.29;33.13;100271.28;5111730;28;20027;-37
2022/05/09 09:36:48;;;;;;;7.43;4.40;;;;;;;25.43;32.67;100262.41;5111484;28;20140;-38
2022/05/09 09:39:19;;;;;;;10.93;4.47;;;;;;;25.51;33.27;100267.22;5111508;28;20031;-38
2022/05/09 09:41:45;;;;;;;10.25;4.20;;;;;;;25.49;33.63;100262.06;5111683;28;20031;-37
2022/05/09 09:44:17;;;;;;;6.10;3.90;;;;;;;25.30;34.33;100261.19;5111384;28;20404;-37
2022/05/09 09:47:19;;;;;;;6.43;4.20;;;;;;;25.12;33.23;100260.78;5111700;28;20031;-37
2022/05/09 09:49:48;;;;;;;8.55;4.32;;;;;;;26.56;31.47;100253.53;5111766;28;20027;-38
2022/05/09 09:52:31;;;;;;;8.68;3.92;;;;;;;26.10;31.87;100255.03;5111356;28;20028;-37
2022/05/09 09:55:09;;;;;;;7.72;4.43;;;;;;;25.11;33.46;100250.19;5111663;28;20034;-37
2022/05/09 09:57:36;;;;;;;7.18;3.72;;;;;;;26.06;32.29;100248.53;5111244;28;20077;-37
2022/05/09 10:00:23;;;;;;;5.50;3.83;;;;;;;26.23;31.80;100248.00;5111433;28;20052;-37
2022/05/09 10:02:50;;;;;;;7.85;3.80;;;;;;;26.89;31.34;100257.06;5111101;28;20019;-38
2022/05/09 10:05:19;;;;;;;8.95;4.00;;;;;;;26.45;31.83;100252.88;5092740;28;20380;-37
2022/05/09 10:07:46;;;;;;;6.13;3.47;;;;;;;26.34;32.01;100248.66;5111027;28;20044;-37
2022/05/09 10:10:23;;;;;;;10.38;4.00;;;;;;;26.80;30.69;100250.66;5111060;28;20451;-37
2022/05/09 10:12:51;;;;;;;5.28;3.70;;;;;;;26.44;31.59;100242.25;5111059;28;20051;-37
2022/05/09 10:15:35;;;;;;;5.93;3.90;;;;;;;27.19;30.65;100249.44;5111490;28;20023;-37
2022/05/09 10:18:21;;;;;;;10.57;3.92;;;;;;;26.88;31.33;100244.53;5110854;28;20483;-36
2022/05/09 10:20:50;;;;;;;7.78;4.07;;;;;;;25.46;32.13;100240.03;5111007;28;20032;-37
2022/05/09 10:26:25;;;;;;;7.40;3.97;;;;;;;26.23;31.89;100241.75;5110998;28;20065;-38
2022/05/09 10:28:55;;;;;;;10.85;3.97;;;;;;;26.68;30.89;100236.69;5110108;28;20134;-38
2022/05/09 10:31:24;;;;;;;8.55;3.72;;;;;;;26.63;30.40;100244.97;5111185;28;20020;-38
2022/05/09 10:34:16;;;;;;;6.75;3.60;;;;;;;26.72;30.84;100238.53;5110812;28;20024;-37
2022/05/09 10:36:51;;;;;;;13.50;3.90;;;;;;;26.40;31.53;100228.38;5111097;28;20020;-37
2022/05/09 10:39:19;;;;;;;6.55;4.00;;;;;;;26.10;31.59;100225.03;5110880;28;20063;-38
2022/05/09 10:41:59;;;;;;;7.18;4.22;;;;;;;26.60;31.25;100221.00;5110541;28;20051;-38
2022/05/09 10:44:57;;;;;;;10.90;4.25;;;;;;;26.87;31.88;100226.53;5110826;28;20042;-38
2022/05/09 10:47:25;;;;;;;11.73;4.18;;;;;;;27.14;31.81;100233.13;5109978;28;20035;-37
2022/05/09 10:50:01;;;;;;;10.43;3.67;;;;;;;27.54;29.67;100221.72;5110654;28;20108;-37
2022/05/09 10:52:55;;;;;;;6.82;3.60;;;;;;;27.42;29.68;100227.72;5110953;28;20047;-37
2022/05/09 10:55:35;;;;;;;7.20;3.50;;;;;;;26.86;29.39;100222.16;5110498;28;20028;-37
2022/05/09 10:58:26;;;;;;;4.32;3.00;;;;;;;27.35;28.38;100217.19;5110484;28;20023;-37
2022/05/09 11:00:57;;;;;;;9.73;3.13;;;;;;;27.49;28.59;100207.06;5110646;28;20078;-37
2022/05/09 11:03:34;;;;;;;5.00;3.05;;;;;;;27.06;28.41;100220.97;5089833;28;20028;-38
2022/05/09 11:06:28;;;;;;;3.95;2.80;;;;;;;26.96;28.59;100220.34;5096694;28;20085;-36
2022/05/09 11:09:12;;;;;;;5.70;3.05;;;;;;;26.04;30.52;100215.28;5110610;28;20027;-37
2022/05/09 11:11:56;;;;;;;8.65;3.22;;;;;;;26.49;30.35;100223.88;5110434;28;20032;-37
2022/05/09 11:14:46;;;;;;;4.18;2.80;;;;;;;26.23;30.36;100206.28;5110517;28;20042;-37
2022/05/09 11:17:36;;;;;;;5.55;3.17;;;;;;;26.50;29.89;100198.22;5110657;28;20023;-38
2022/05/09 11:20:07;;;;;;;4.95;2.97;;;;;;;26.31;30.48;100197.44;5110362;28;20023;-37
2022/05/09 11:23:12;;;;;;;5.15;3.03;;;;;;;26.02;31.52;100211.25;5110283;28;20032;-36
2022/05/09 11:26:01;;;;;;;6.85;3.30;;;;;;;25.83;31.86;100203.03;5109901;28;20030;-38
2022/05/09 11:28:58;;;;;;;7.28;3.13;;;;;;;26.32;30.87;100199.88;5110402;28;20031;-38
2022/05/09 11:31:35;;;;;;;6.53;2.95;;;;;;;26.63;30.46;100188.44;5110059;28;20020;-38
2022/05/09 11:34:37;;;;;;;4.22;2.80;;;;;;;27.05;29.38;100183.03;5109915;28;20187;-38
2022/05/09 11:37:23;;;;;;;8.30;2.88;;;;;;;26.92;30.12;100190.94;5110089;28;20088;-38
2022/05/09 11:39:52;;;;;;;5.13;2.70;;;;;;;26.46;29.12;100191.72;5058841;28;20423;-38
2022/05/09 11:45:39;;;;;;;3.55;2.50;;;;;;;26.92;28.12;100181.91;5110317;28;20046;-37
2022/05/09 11:48:19;;;;;;;3.97;2.70;;;;;;;27.28;27.56;100183.97;5109847;28;20045;-37
2022/05/09 11:51:14;;;;;;;3.20;2.53;;;;;;;27.03;27.50;100186.06;5109933;28;20076;-37